sensor_id;sensor_type;location;lat;lon;timestamp;pressure;altitude;pressure_sealevel;temperature;humidity
66381;BME280;53177;52.648;1.214;2023-07-24T00:02:12;99722.84;;;17.06;98.29
66381;BME280;53177;52.648;1.214;2023-07-24T00:04:37;99723.91;;;17.03;98.84
66381;BME280;53177;52.648;1.214;2023-07-24T00:07:03;99723.16;;;17.01;98.91
66381;BME280;53177;52.648;1.214;2023-07-24T00:09:28;99731.44;;;16.96;99.18
66381;BME280;53177;52.648;1.214;2023-07-24T00:11:54;99722.34;;;17.13;98.36
66381;BME280;53177;52.648;1.214;2023-07-24T00:14:19;99733.28;;;16.96;99.34
66381;BME280;53177;52.648;1.214;2023-07-24T00:16:45;99736.13;;;17.07;99.48
66381;BME280;53177;52.648;1.214;2023-07-24T00:19:10;99727.84;;;16.97;99.73
66381;BME280;53177;52.648;1.214;2023-07-24T00:21:35;99724.78;;;16.89;100.00
66381;BME280;53177;52.648;1.214;2023-07-24T00:24:01;99724.72;;;16.91;100.00
66381;BME280;53177;52.648;1.214;2023-07-24T00:26:26;99721.63;;;16.97;99.80
66381;BME280;53177;52.648;1.214;2023-07-24T00:28:51;99725.28;;;16.96;100.00
66381;BME280;53177;52.648;1.214;2023-07-24T00:31:17;99719.66;;;16.86;100.00
66381;BME280;53177;52.648;1.214;2023-07-24T00:33:42;99711.09;;;16.81;100.00
66381;BME280;53177;52.648;1.214;2023-07-24T00:36:07;99705.00;;;16.65;100.00
66381;BME280;53177;52.648;1.214;2023-07-24T00:38:33;99706.69;;;16.52;100.00
66381;BME280;53177;52.648;1.214;2023-07-24T00:40:58;99698.59;;;16.53;100.00
66381;BME280;53177;52.648;1.214;2023-07-24T00:43:23;99701.19;;;16.55;100.00
66381;BME280;53177;52.648;1.214;2023-07-24T00:45:49;99697.56;;;16.56;100.00
66381;BME280;53177;52.648;1.214;2023-07-24T00:48:15;99693.56;;;16.49;100.00
66381;BME280;53177;52.648;1.214;2023-07-24T00:50:42;99687.19;;;16.51;100.00
66381;BME280;53177;52.648;1.214;2023-07-24T00:53:08;99691.91;;;16.75;100.00
66381;BME280;53177;52.648;1.214;2023-07-24T00:55:33;99697.84;;;16.80;100.00
66381;BME280;53177;52.648;1.214;2023-07-24T00:57:59;99694.38;;;16.92;100.00
66381;BME280;53177;52.648;1.214;2023-07-24T01:00:27;99692.00;;;16.87;99.97
66381;BME280;53177;52.648;1.214;2023-07-24T01:02:53;99695.69;;;16.99;99.71
66381;BME280;53177;52.648;1.214;2023-07-24T01:05:19;99692.53;;;17.07;98.84
66381;BME280;53177;52.648;1.214;2023-07-24T01:07:47;99692.25;;;16.97;99.00
66381;BME280;53177;52.648;1.214;2023-07-24T01:10:13;99689.94;;;17.05;98.82
66381;BME280;53177;52.648;1.214;2023-07-24T01:13:08;99688.13;;;17.06;98.98
66381;BME280;53177;52.648;1.214;2023-07-24T01:15:45;99686.00;;;16.84;99.14
66381;BME280;53177;52.648;1.214;2023-07-24T01:18:17;99679.47;;;16.47;100.00
66381;BME280;53177;52.648;1.214;2023-07-24T01:20:52;99673.94;;;16.07;100.00
66381;BME280;53177;52.648;1.214;2023-07-24T01:26:00;99679.47;;;16.04;100.00
66381;BME280;53177;52.648;1.214;2023-07-24T01:28:28;99673.25;;;15.90;100.00
66381;BME280;53177;52.648;1.214;2023-07-24T01:30:54;99668.13;;;15.87;100.00
66381;BME280;53177;52.648;1.214;2023-07-24T01:33:20;99672.69;;;15.85;100.00
66381;BME280;53177;52.648;1.214;2023-07-24T01:35:55;99666.69;;;15.81;100.00
66381;BME280;53177;52.648;1.214;2023-07-24T01:38:24;99658.38;;;15.72;100.00
66381;BME280;53177;52.648;1.214;2023-07-24T01:40:51;99662.31;;;15.94;100.00
66381;BME280;53177;52.648;1.214;2023-07-24T01:43:17;99657.75;;;16.11;100.00
66381;BME280;53177;52.648;1.214;2023-07-24T01:45:42;99653.47;;;15.94;100.00
66381;BME280;53177;52.648;1.214;2023-07-24T01:48:07;99656.91;;;16.10;100.00
66381;BME280;53177;52.648;1.214;2023-07-24T01:50:33;99654.63;;;16.18;100.00
66381;BME280;53177;52.648;1.214;2023-07-24T01:52:58;99652.22;;;16.14;100.00
66381;BME280;53177;52.648;1.214;2023-07-24T01:55:24;99658.72;;;16.10;100.00
66381;BME280;53177;52.648;1.214;2023-07-24T01:57:49;99651.56;;;16.24;100.00
66381;BME280;53177;52.648;1.214;2023-07-24T02:00:15;99658.59;;;16.39;100.00
66381;BME280;53177;52.648;1.214;2023-07-24T02:02:41;99652.56;;;16.50;100.00
66381;BME280;53177;52.648;1.214;2023-07-24T02:05:07;99656.38;;;16.60;100.00
66381;BME280;53177;52.648;1.214;2023-07-24T02:07:32;99654.88;;;16.56;100.00
66381;BME280;53177;52.648;1.214;2023-07-24T02:09:58;99648.69;;;16.27;100.00
66381;BME280;53177;52.648;1.214;2023-07-24T02:12:23;99655.38;;;15.78;100.00
66381;BME280;53177;52.648;1.214;2023-07-24T02:14:48;99651.38;;;15.85;100.00
66381;BME280;53177;52.648;1.214;2023-07-24T02:17:17;99658.50;;;15.70;100.00
66381;BME280;53177;52.648;1.214;2023-07-24T02:19:42;99656.88;;;15.82;100.00
66381;BME280;53177;52.648;1.214;2023-07-24T02:22:07;99657.91;;;15.79;100.00
66381;BME280;53177;52.648;1.214;2023-07-24T02:24:33;99655.75;;;16.00;100.00
66381;BME280;53177;52.648;1.214;2023-07-24T02:26:58;99654.25;;;15.96;100.00
66381;BME280;53177;52.648;1.214;2023-07-24T02:29:24;99660.31;;;15.98;100.00
66381;BME280;53177;52.648;1.214;2023-07-24T02:31:50;99660.50;;;16.09;100.00
66381;BME280;53177;52.648;1.214;2023-07-24T02:34:15;99662.97;;;15.98;100.00
66381;BME280;53177;52.648;1.214;2023-07-24T02:36:41;99660.03;;;16.02;100.00
66381;BME280;53177;52.648;1.214;2023-07-24T02:39:07;99659.25;;;16.00;100.00
66381;BME280;53177;52.648;1.214;2023-07-24T02:41:32;99658.91;;;15.92;100.00
66381;BME280;53177;52.648;1.214;2023-07-24T02:43:58;99656.03;;;15.95;100.00
66381;BME280;53177;52.648;1.214;2023-07-24T02:46:23;99664.59;;;16.00;100.00
66381;BME280;53177;52.648;1.214;2023-07-24T02:48:53;99660.03;;;15.88;100.00
66381;BME280;53177;52.648;1.214;2023-07-24T02:51:19;99662.00;;;15.71;100.00
66381;BME280;53177;52.648;1.214;2023-07-24T02:53:44;99654.97;;;15.70;100.00
66381;BME280;53177;52.648;1.214;2023-07-24T02:56:09;99651.97;;;15.60;100.00
66381;BME280;53177;52.648;1.214;2023-07-24T02:58:35;99653.66;;;15.47;100.00
66381;BME280;53177;52.648;1.214;2023-07-24T03:01:04;99650.97;;;15.47;100.00
66381;BME280;53177;52.648;1.214;2023-07-24T03:03:31;99651.69;;;15.35;100.00
66381;BME280;53177;52.648;1.214;2023-07-24T03:05:56;99652.81;;;15.31;100.00
66381;BME280;53177;52.648;1.214;2023-07-24T03:08:22;99650.19;;;15.15;100.00
66381;BME280;53177;52.648;1.214;2023-07-24T03:10:47;99651.25;;;15.13;100.00
66381;BME280;53177;52.648;1.214;2023-07-24T03:13:12;99662.53;;;15.02;100.00
66381;BME280;53177;52.648;1.214;2023-07-24T03:15:38;99657.81;;;14.91;100.00
66381;BME280;53177;52.648;1.214;2023-07-24T03:18:03;99660.84;;;14.85;100.00
66381;BME280;53177;52.648;1.214;2023-07-24T03:20:28;99657.81;;;14.76;100.00
66381;BME280;53177;52.648;1.214;2023-07-24T03:22:54;99667.97;;;14.69;100.00
66381;BME280;53177;52.648;1.214;2023-07-24T03:25:19;99667.97;;;14.69;100.00
66381;BME280;53177;52.648;1.214;2023-07-24T03:27:47;99667.47;;;14.63;100.00
66381;BME280;53177;52.648;1.214;2023-07-24T03:30:19;99676.38;;;14.61;100.00
66381;BME280;53177;52.648;1.214;2023-07-24T03:32:46;99677.41;;;14.59;100.00
66381;BME280;53177;52.648;1.214;2023-07-24T03:35:13;99677.56;;;14.56;100.00
66381;BME280;53177;52.648;1.214;2023-07-24T03:37:39;99689.66;;;14.46;100.00
66381;BME280;53177;52.648;1.214;2023-07-24T03:40:05;99687.63;;;14.51;100.00
66381;BME280;53177;52.648;1.214;2023-07-24T03:42:31;99686.00;;;14.48;100.00
66381;BME280;53177;52.648;1.214;2023-07-24T03:44:57;99697.88;;;14.41;100.00
66381;BME280;53177;52.648;1.214;2023-07-24T03:47:23;99690.78;;;14.42;100.00
66381;BME280;53177;52.648;1.214;2023-07-24T03:49:49;99696.25;;;14.39;100.00
66381;BME280;53177;52.648;1.214;2023-07-24T03:52:15;99698.44;;;14.31;100.00
66381;BME280;53177;52.648;1.214;2023-07-24T03:54:41;99697.00;;;14.25;100.00
66381;BME280;53177;52.648;1.214;2023-07-24T03:57:06;99705.56;;;14.30;100.00
66381;BME280;53177;52.648;1.214;2023-07-24T03:59:32;99703.25;;;14.24;100.00
66381;BME280;53177;52.648;1.214;2023-07-24T04:01:58;99701.44;;;14.25;100.00
66381;BME280;53177;52.648;1.214;2023-07-24T04:04:23;99708.31;;;14.29;100.00
66381;BME280;53177;52.648;1.214;2023-07-24T04:06:48;99705.03;;;14.24;100.00
66381;BME280;53177;52.648;1.214;2023-07-24T04:09:14;99708.22;;;14.14;100.00
66381;BME280;53177;52.648;1.214;2023-07-24T04:11:43;99704.84;;;14.11;100.00
66381;BME280;53177;52.648;1.214;2023-07-24T04:14:09;99707.59;;;14.09;100.00
66381;BME280;53177;52.648;1.214;2023-07-24T04:16:34;99706.88;;;14.06;100.00
66381;BME280;53177;52.648;1.214;2023-07-24T04:19:00;99711.34;;;14.05;100.00
66381;BME280;53177;52.648;1.214;2023-07-24T04:21:25;99716.59;;;14.07;100.00
66381;BME280;53177;52.648;1.214;2023-07-24T04:23:51;99718.22;;;14.09;100.00
66381;BME280;53177;52.648;1.214;2023-07-24T04:26:16;99722.13;;;14.02;100.00
66381;BME280;53177;52.648;1.214;2023-07-24T04:28:41;99724.97;;;13.99;100.00
66381;BME280;53177;52.648;1.214;2023-07-24T04:31:07;99729.25;;;14.02;100.00
66381;BME280;53177;52.648;1.214;2023-07-24T04:33:32;99724.16;;;13.97;100.00
66381;BME280;53177;52.648;1.214;2023-07-24T04:35:57;99728.72;;;13.95;100.00
66381;BME280;53177;52.648;1.214;2023-07-24T04:38:23;99728.09;;;13.90;100.00
66381;BME280;53177;52.648;1.214;2023-07-24T04:40:48;99727.22;;;13.90;100.00
66381;BME280;53177;52.648;1.214;2023-07-24T04:43:14;99734.44;;;13.88;100.00
66381;BME280;53177;52.648;1.214;2023-07-24T04:45:39;99732.09;;;13.82;100.00
66381;BME280;53177;52.648;1.214;2023-07-24T04:48:04;99737.31;;;13.83;100.00
66381;BME280;53177;52.648;1.214;2023-07-24T04:50:30;99735.84;;;13.78;100.00
66381;BME280;53177;52.648;1.214;2023-07-24T04:52:55;99742.16;;;13.75;100.00
66381;BME280;53177;52.648;1.214;2023-07-24T04:55:21;99739.66;;;13.72;100.00
66381;BME280;53177;52.648;1.214;2023-07-24T04:57:47;99748.75;;;13.85;100.00
66381;BME280;53177;52.648;1.214;2023-07-24T05:00:14;99751.09;;;13.74;100.00
66381;BME280;53177;52.648;1.214;2023-07-24T05:02:40;99747.41;;;13.77;100.00
66381;BME280;53177;52.648;1.214;2023-07-24T05:05:05;99753.66;;;13.76;100.00
66381;BME280;53177;52.648;1.214;2023-07-24T05:07:31;99759.19;;;13.71;100.00
66381;BME280;53177;52.648;1.214;2023-07-24T05:09:56;99756.53;;;13.71;100.00
66381;BME280;53177;52.648;1.214;2023-07-24T05:12:22;99757.13;;;13.78;100.00
66381;BME280;53177;52.648;1.214;2023-07-24T05:14:47;99759.84;;;13.76;100.00
66381;BME280;53177;52.648;1.214;2023-07-24T05:17:13;99762.81;;;13.70;100.00
66381;BME280;53177;52.648;1.214;2023-07-24T05:19:38;99760.22;;;13.69;100.00
66381;BME280;53177;52.648;1.214;2023-07-24T05:22:04;99758.50;;;13.68;100.00
66381;BME280;53177;52.648;1.214;2023-07-24T05:24:29;99754.59;;;13.75;100.00
66381;BME280;53177;52.648;1.214;2023-07-24T05:26:55;99767.16;;;13.71;100.00
66381;BME280;53177;52.648;1.214;2023-07-24T05:29:20;99762.72;;;13.72;100.00
66381;BME280;53177;52.648;1.214;2023-07-24T05:31:46;99768.84;;;13.74;100.00
66381;BME280;53177;52.648;1.214;2023-07-24T05:34:11;99768.19;;;13.69;100.00
66381;BME280;53177;52.648;1.214;2023-07-24T05:36:36;99774.53;;;13.66;100.00
66381;BME280;53177;52.648;1.214;2023-07-24T05:39:02;99776.66;;;13.59;100.00
66381;BME280;53177;52.648;1.214;2023-07-24T05:41:27;99773.34;;;13.54;100.00
66381;BME280;53177;52.648;1.214;2023-07-24T05:43:52;99776.06;;;13.53;100.00
66381;BME280;53177;52.648;1.214;2023-07-24T05:46:18;99786.22;;;13.45;100.00
66381;BME280;53177;52.648;1.214;2023-07-24T05:48:44;99773.41;;;13.36;100.00
66381;BME280;53177;52.648;1.214;2023-07-24T05:51:09;99777.31;;;13.46;100.00
66381;BME280;53177;52.648;1.214;2023-07-24T05:53:34;99781.84;;;13.44;100.00
66381;BME280;53177;52.648;1.214;2023-07-24T05:56:01;99783.09;;;13.37;100.00
66381;BME280;53177;52.648;1.214;2023-07-24T05:58:27;99774.16;;;13.38;100.00
66381;BME280;53177;52.648;1.214;2023-07-24T06:00:52;99781.91;;;13.42;100.00
66381;BME280;53177;52.648;1.214;2023-07-24T06:03:18;99785.81;;;13.35;100.00
66381;BME280;53177;52.648;1.214;2023-07-24T06:05:43;99796.53;;;13.34;100.00
66381;BME280;53177;52.648;1.214;2023-07-24T06:08:09;99789.31;;;13.36;100.00
66381;BME280;53177;52.648;1.214;2023-07-24T06:10:36;99789.47;;;13.33;100.00
66381;BME280;53177;52.648;1.214;2023-07-24T06:13:01;99798.38;;;13.32;100.00
66381;BME280;53177;52.648;1.214;2023-07-24T06:15:27;99790.63;;;13.27;100.00
66381;BME280;53177;52.648;1.214;2023-07-24T06:17:52;99801.91;;;13.32;100.00
66381;BME280;53177;52.648;1.214;2023-07-24T06:20:19;99796.66;;;13.31;100.00
66381;BME280;53177;52.648;1.214;2023-07-24T06:22:44;99800.38;;;13.27;100.00
66381;BME280;53177;52.648;1.214;2023-07-24T06:25:10;99807.78;;;13.20;100.00
66381;BME280;53177;52.648;1.214;2023-07-24T06:27:35;99799.81;;;13.20;100.00
66381;BME280;53177;52.648;1.214;2023-07-24T06:30:01;99803.03;;;13.27;100.00
66381;BME280;53177;52.648;1.214;2023-07-24T06:32:26;99813.97;;;13.21;100.00
66381;BME280;53177;52.648;1.214;2023-07-24T06:34:52;99818.03;;;13.28;100.00
66381;BME280;53177;52.648;1.214;2023-07-24T06:37:17;99820.78;;;13.26;100.00
66381;BME280;53177;52.648;1.214;2023-07-24T06:39:42;99811.09;;;13.25;100.00
66381;BME280;53177;52.648;1.214;2023-07-24T06:42:08;99814.31;;;13.32;100.00
66381;BME280;53177;52.648;1.214;2023-07-24T06:44:34;99811.75;;;13.30;100.00
66381;BME280;53177;52.648;1.214;2023-07-24T06:46:59;99813.16;;;13.37;100.00
66381;BME280;53177;52.648;1.214;2023-07-24T06:49:25;99813.22;;;13.36;100.00
66381;BME280;53177;52.648;1.214;2023-07-24T06:51:50;99822.47;;;13.27;100.00
66381;BME280;53177;52.648;1.214;2023-07-24T06:54:15;99822.44;;;13.29;100.00
66381;BME280;53177;52.648;1.214;2023-07-24T06:56:41;99832.31;;;13.44;100.00
66381;BME280;53177;52.648;1.214;2023-07-24T06:59:06;99828.59;;;13.29;100.00
66381;BME280;53177;52.648;1.214;2023-07-24T07:01:31;99819.31;;;13.38;100.00
66381;BME280;53177;52.648;1.214;2023-07-24T07:03:57;99828.09;;;13.40;100.00
66381;BME280;53177;52.648;1.214;2023-07-24T07:06:22;99830.59;;;13.43;100.00
66381;BME280;53177;52.648;1.214;2023-07-24T07:08:47;99832.59;;;13.38;100.00
66381;BME280;53177;52.648;1.214;2023-07-24T07:11:13;99832.94;;;13.49;100.00
66381;BME280;53177;52.648;1.214;2023-07-24T07:13:38;99837.31;;;13.50;100.00
66381;BME280;53177;52.648;1.214;2023-07-24T07:16:04;99842.41;;;13.54;100.00
66381;BME280;53177;52.648;1.214;2023-07-24T07:18:29;99854.06;;;13.52;100.00
66381;BME280;53177;52.648;1.214;2023-07-24T07:20:54;99844.28;;;13.52;100.00
66381;BME280;53177;52.648;1.214;2023-07-24T07:23:21;99854.97;;;13.51;100.00
66381;BME280;53177;52.648;1.214;2023-07-24T07:25:46;99853.41;;;13.47;100.00
66381;BME280;53177;52.648;1.214;2023-07-24T07:28:13;99857.22;;;13.41;100.00
66381;BME280;53177;52.648;1.214;2023-07-24T07:30:39;99855.88;;;13.33;100.00
66381;BME280;53177;52.648;1.214;2023-07-24T07:33:04;99859.66;;;13.27;100.00
66381;BME280;53177;52.648;1.214;2023-07-24T07:35:32;99863.03;;;13.31;100.00
66381;BME280;53177;52.648;1.214;2023-07-24T07:37:57;99861.53;;;13.44;100.00
66381;BME280;53177;52.648;1.214;2023-07-24T07:40:23;99869.56;;;13.42;100.00
66381;BME280;53177;52.648;1.214;2023-07-24T07:42:49;99868.56;;;13.45;100.00
66381;BME280;53177;52.648;1.214;2023-07-24T07:45:14;99866.19;;;13.39;100.00
66381;BME280;53177;52.648;1.214;2023-07-24T07:47:40;99865.41;;;13.37;100.00
66381;BME280;53177;52.648;1.214;2023-07-24T07:50:06;99859.28;;;13.35;100.00
66381;BME280;53177;52.648;1.214;2023-07-24T07:52:31;99864.25;;;13.42;100.00
66381;BME280;53177;52.648;1.214;2023-07-24T07:54:57;99855.50;;;13.40;100.00
66381;BME280;53177;52.648;1.214;2023-07-24T07:57:22;99861.44;;;13.45;100.00
66381;BME280;53177;52.648;1.214;2023-07-24T07:59:47;99862.03;;;13.52;100.00
66381;BME280;53177;52.648;1.214;2023-07-24T08:02:13;99861.72;;;13.58;100.00
66381;BME280;53177;52.648;1.214;2023-07-24T08:04:38;99859.78;;;13.61;100.00
66381;BME280;53177;52.648;1.214;2023-07-24T08:07:04;99876.41;;;13.65;100.00
66381;BME280;53177;52.648;1.214;2023-07-24T08:09:29;99875.22;;;13.53;100.00
66381;BME280;53177;52.648;1.214;2023-07-24T08:11:55;99882.09;;;13.57;100.00
66381;BME280;53177;52.648;1.214;2023-07-24T08:14:20;99881.19;;;13.58;100.00
66381;BME280;53177;52.648;1.214;2023-07-24T08:16:49;99882.09;;;13.57;100.00
66381;BME280;53177;52.648;1.214;2023-07-24T08:19:14;99871.84;;;13.50;100.00
66381;BME280;53177;52.648;1.214;2023-07-24T08:21:40;99874.81;;;13.44;100.00
66381;BME280;53177;52.648;1.214;2023-07-24T08:24:05;99880.84;;;13.47;100.00
66381;BME280;53177;52.648;1.214;2023-07-24T08:26:31;99881.97;;;13.42;100.00
66381;BME280;53177;52.648;1.214;2023-07-24T08:28:56;99888.50;;;13.35;100.00
66381;BME280;53177;52.648;1.214;2023-07-24T08:31:21;99891.63;;;13.26;100.00
66381;BME280;53177;52.648;1.214;2023-07-24T08:33:47;99888.88;;;13.27;100.00
66381;BME280;53177;52.648;1.214;2023-07-24T08:36:12;99890.25;;;13.36;100.00
66381;BME280;53177;52.648;1.214;2023-07-24T08:38:38;99893.03;;;13.33;100.00
66381;BME280;53177;52.648;1.214;2023-07-24T08:41:09;99896.56;;;13.33;100.00
66381;BME280;53177;52.648;1.214;2023-07-24T08:43:39;99892.31;;;13.48;100.00
66381;BME280;53177;52.648;1.214;2023-07-24T08:46:06;99885.69;;;13.56;100.00
66381;BME280;53177;52.648;1.214;2023-07-24T08:48:33;99896.91;;;13.44;100.00
66381;BME280;53177;52.648;1.214;2023-07-24T08:51:11;99891.25;;;13.52;100.00
66381;BME280;53177;52.648;1.214;2023-07-24T08:53:42;99889.00;;;13.61;100.00
66381;BME280;53177;52.648;1.214;2023-07-24T08:56:09;99902.00;;;13.49;100.00
66381;BME280;53177;52.648;1.214;2023-07-24T08:58:36;99888.50;;;13.53;100.00
66381;BME280;53177;52.648;1.214;2023-07-24T09:01:02;99886.91;;;13.49;100.00
66381;BME280;53177;52.648;1.214;2023-07-24T09:03:28;99880.63;;;13.52;100.00
66381;BME280;53177;52.648;1.214;2023-07-24T09:05:54;99891.25;;;13.52;100.00
66381;BME280;53177;52.648;1.214;2023-07-24T09:08:32;99889.44;;;13.52;100.00
66381;BME280;53177;52.648;1.214;2023-07-24T09:10:59;99890.66;;;13.45;100.00
66381;BME280;53177;52.648;1.214;2023-07-24T09:13:25;99884.97;;;13.53;100.00
66381;BME280;53177;52.648;1.214;2023-07-24T09:15:50;99897.88;;;13.60;100.00
66381;BME280;53177;52.648;1.214;2023-07-24T09:18:16;99897.88;;;13.60;100.00
66381;BME280;53177;52.648;1.214;2023-07-24T09:20:44;99908.88;;;13.53;100.00
66381;BME280;53177;52.648;1.214;2023-07-24T09:23:11;99909.69;;;13.55;100.00
66381;BME280;53177;52.648;1.214;2023-07-24T09:25:41;99916.72;;;13.19;100.00
66381;BME280;53177;52.648;1.214;2023-07-24T09:28:14;99918.56;;;13.16;100.00
66381;BME280;53177;52.648;1.214;2023-07-24T09:30:41;99922.38;;;13.11;100.00
66381;BME280;53177;52.648;1.214;2023-07-24T09:33:09;99916.59;;;13.22;100.00
66381;BME280;53177;52.648;1.214;2023-07-24T09:35:34;99917.00;;;13.12;100.00
66381;BME280;53177;52.648;1.214;2023-07-24T09:38:05;99922.25;;;13.14;100.00
66381;BME280;53177;52.648;1.214;2023-07-24T09:40:42;99917.88;;;13.32;100.00
66381;BME280;53177;52.648;1.214;2023-07-24T09:43:34;99934.47;;;13.37;100.00
66381;BME280;53177;52.648;1.214;2023-07-24T09:46:01;99928.78;;;13.44;100.00
66381;BME280;53177;52.648;1.214;2023-07-24T09:48:28;99938.81;;;13.56;100.00
66381;BME280;53177;52.648;1.214;2023-07-24T09:50:56;99933.13;;;13.64;100.00
66381;BME280;53177;52.648;1.214;2023-07-24T09:56:08;99936.13;;;13.94;100.00
66381;BME280;53177;52.648;1.214;2023-07-24T09:58:38;99933.03;;;14.03;100.00
66381;BME280;53177;52.648;1.214;2023-07-24T10:01:05;99949.16;;;14.17;100.00
66381;BME280;53177;52.648;1.214;2023-07-24T10:03:34;99946.19;;;14.23;100.00
66381;BME280;53177;52.648;1.214;2023-07-24T10:06:00;99952.03;;;14.12;100.00
66381;BME280;53177;52.648;1.214;2023-07-24T10:08:26;99951.25;;;14.10;100.00
66381;BME280;53177;52.648;1.214;2023-07-24T10:10:51;99955.78;;;14.08;100.00
66381;BME280;53177;52.648;1.214;2023-07-24T10:13:19;99953.00;;;14.11;100.00
66381;BME280;53177;52.648;1.214;2023-07-24T10:15:47;99960.22;;;14.08;100.00
66381;BME280;53177;52.648;1.214;2023-07-24T10:18:15;99961.94;;;14.09;100.00
66381;BME280;53177;52.648;1.214;2023-07-24T10:20:41;99965.16;;;14.15;100.00
66381;BME280;53177;52.648;1.214;2023-07-24T10:23:09;99971.19;;;14.19;100.00
66381;BME280;53177;52.648;1.214;2023-07-24T10:25:36;99972.47;;;14.29;100.00
66381;BME280;53177;52.648;1.214;2023-07-24T10:28:04;99979.97;;;14.21;100.00
66381;BME280;53177;52.648;1.214;2023-07-24T10:30:41;99967.44;;;14.23;100.00
66381;BME280;53177;52.648;1.214;2023-07-24T10:33:09;99972.75;;;14.23;100.00
66381;BME280;53177;52.648;1.214;2023-07-24T10:35:46;99980.84;;;14.22;100.00
66381;BME280;53177;52.648;1.214;2023-07-24T10:38:14;99985.69;;;14.31;100.00
66381;BME280;53177;52.648;1.214;2023-07-24T10:40:41;99986.78;;;14.27;100.00
66381;BME280;53177;52.648;1.214;2023-07-24T10:43:08;99986.16;;;14.22;100.00
66381;BME280;53177;52.648;1.214;2023-07-24T10:45:41;99982.25;;;14.29;100.00
66381;BME280;53177;52.648;1.214;2023-07-24T10:48:07;99995.28;;;14.35;100.00
66381;BME280;53177;52.648;1.214;2023-07-24T10:50:38;99997.19;;;14.31;100.00
66381;BME280;53177;52.648;1.214;2023-07-24T10:53:03;99992.72;;;14.14;100.00
66381;BME280;53177;52.648;1.214;2023-07-24T10:55:28;99997.22;;;14.12;100.00
66381;BME280;53177;52.648;1.214;2023-07-24T10:57:54;100006.88;;;14.15;100.00
66381;BME280;53177;52.648;1.214;2023-07-24T11:00:20;100000.88;;;14.29;100.00
66381;BME280;53177;52.648;1.214;2023-07-24T11:02:45;100012.28;;;14.31;100.00
66381;BME280;53177;52.648;1.214;2023-07-24T11:05:12;100016.28;;;14.41;100.00
66381;BME280;53177;52.648;1.214;2023-07-24T11:07:39;100011.22;;;14.35;100.00
66381;BME280;53177;52.648;1.214;2023-07-24T11:10:17;100018.47;;;14.31;100.00
66381;BME280;53177;52.648;1.214;2023-07-24T11:12:43;100020.72;;;14.22;100.00
66381;BME280;53177;52.648;1.214;2023-07-24T11:15:10;100018.06;;;14.22;100.00
66381;BME280;53177;52.648;1.214;2023-07-24T11:17:36;100015.19;;;14.26;100.00
66381;BME280;53177;52.648;1.214;2023-07-24T11:20:14;100021.72;;;14.19;100.00
66381;BME280;53177;52.648;1.214;2023-07-24T11:22:42;100027.84;;;14.21;100.00
66381;BME280;53177;52.648;1.214;2023-07-24T11:25:09;100026.81;;;14.24;100.00
66381;BME280;53177;52.648;1.214;2023-07-24T11:27:42;100026.75;;;14.25;100.00
66381;BME280;53177;52.648;1.214;2023-07-24T11:30:10;100028.78;;;14.39;100.00
66381;BME280;53177;52.648;1.214;2023-07-24T11:32:38;100040.69;;;14.30;100.00
66381;BME280;53177;52.648;1.214;2023-07-24T11:35:04;100034.56;;;14.47;100.00
66381;BME280;53177;52.648;1.214;2023-07-24T11:37:30;100044.50;;;14.43;100.00
66381;BME280;53177;52.648;1.214;2023-07-24T11:39:59;100040.75;;;14.47;100.00
66381;BME280;53177;52.648;1.214;2023-07-24T11:42:30;100045.34;;;14.63;100.00
66381;BME280;53177;52.648;1.214;2023-07-24T11:44:56;100039.84;;;14.66;100.00
66381;BME280;53177;52.648;1.214;2023-07-24T11:47:25;100043.22;;;14.69;100.00
66381;BME280;53177;52.648;1.214;2023-07-24T11:50:00;100042.81;;;14.59;100.00
66381;BME280;53177;52.648;1.214;2023-07-24T11:52:37;100052.72;;;14.56;100.00
66381;BME280;53177;52.648;1.214;2023-07-24T11:55:04;100048.69;;;14.66;100.00
66381;BME280;53177;52.648;1.214;2023-07-24T11:57:29;100049.47;;;14.68;100.00
66381;BME280;53177;52.648;1.214;2023-07-24T11:59:55;100052.59;;;14.76;100.00
66381;BME280;53177;52.648;1.214;2023-07-24T12:02:25;100054.56;;;14.90;100.00
66381;BME280;53177;52.648;1.214;2023-07-24T12:04:56;100048.53;;;15.21;100.00
66381;BME280;53177;52.648;1.214;2023-07-24T12:07:28;100053.09;;;15.69;100.00
66381;BME280;53177;52.648;1.214;2023-07-24T12:09:54;100043.66;;;15.94;100.00
66381;BME280;53177;52.648;1.214;2023-07-24T12:12:19;100049.97;;;15.61;100.00
66381;BME280;53177;52.648;1.214;2023-07-24T12:14:45;100040.69;;;15.52;99.90
66381;BME280;53177;52.648;1.214;2023-07-24T12:17:10;100045.66;;;15.58;100.00
66381;BME280;53177;52.648;1.214;2023-07-24T12:19:39;100045.91;;;15.53;95.81
66381;BME280;53177;52.648;1.214;2023-07-24T12:22:04;100050.47;;;15.51;96.87
66381;BME280;53177;52.648;1.214;2023-07-24T12:24:30;100049.19;;;15.74;97.88
66381;BME280;53177;52.648;1.214;2023-07-24T12:26:55;100054.41;;;15.93;96.08
66381;BME280;53177;52.648;1.214;2023-07-24T12:29:21;100048.81;;;15.97;91.83
66381;BME280;53177;52.648;1.214;2023-07-24T12:31:46;100046.16;;;16.13;89.82
66381;BME280;53177;52.648;1.214;2023-07-24T12:34:11;100052.88;;;16.20;88.01
66381;BME280;53177;52.648;1.214;2023-07-24T12:36:37;100047.97;;;16.28;87.58
66381;BME280;53177;52.648;1.214;2023-07-24T12:39:02;100055.59;;;16.50;83.68
66381;BME280;53177;52.648;1.214;2023-07-24T12:41:27;100048.16;;;16.86;84.95
66381;BME280;53177;52.648;1.214;2023-07-24T12:43:53;100053.84;;;16.80;81.83
66381;BME280;53177;52.648;1.214;2023-07-24T12:46:18;100057.41;;;16.49;80.11
66381;BME280;53177;52.648;1.214;2023-07-24T12:48:43;100051.53;;;16.74;82.87
66381;BME280;53177;52.648;1.214;2023-07-24T12:51:09;100050.78;;;17.16;83.09
66381;BME280;53177;52.648;1.214;2023-07-24T12:53:34;100045.38;;;17.18;79.88